Time;durP1;ratioP1;P1;durP2;ratioP2;P2;SDS_P1;SDS_P2;PMS_P1;PMS_P2;Temp;Humidity;BMP_temperature;BMP_pressure;BME280_temperature;BME280_humidity;BME280_pressure;Samples;Min_cycle;Max_cycle;Signal;HPM_P1;HPM_P2
2022/01/21 00:01:23;;;;;;;8.02;2.92;;;3.70;99.90;;;;;;5129562;27;20031;-71
2022/01/21 00:03:49;;;;;;;7.93;2.72;;;3.60;99.90;;;;;;5130687;27;20054;-71
2022/01/21 00:06:15;;;;;;;14.40;3.15;;;3.60;99.90;;;;;;5130972;27;20027;-70
2022/01/21 00:08:44;;;;;;;9.18;3.50;;;3.70;99.90;;;;;;5130037;27;20473;-70
2022/01/21 00:11:12;;;;;;;8.52;2.53;;;3.70;99.90;;;;;;5130979;27;20326;-69
2022/01/21 00:13:39;;;;;;;7.78;2.30;;;3.70;99.90;;;;;;5129999;27;20019;-69
2022/01/21 00:16:06;;;;;;;7.55;2.53;;;3.80;99.90;;;;;;5122599;27;20127;-70
2022/01/21 00:18:36;;;;;;;6.40;2.60;;;3.80;99.90;;;;;;5131466;27;20034;-68
2022/01/21 00:32:07;;;;;;;12.80;2.47;;;3.70;99.90;;;;;;5102445;28;20036;-69
2022/01/21 00:34:33;;;;;;;6.43;2.15;;;3.70;99.90;;;;;;5114819;28;20024;-70
2022/01/21 00:36:59;;;;;;;3.72;1.63;;;3.50;99.90;;;;;;5112042;28;20238;-70
2022/01/21 00:39:28;;;;;;;10.35;2.42;;;3.50;99.90;;;;;;5130486;27;20031;-69
2022/01/21 00:42:25;;;;;;;12.00;3.33;;;3.50;99.90;;;;;;5112807;28;20019;-69
2022/01/21 00:44:53;;;;;;;11.20;2.63;;;3.50;99.90;;;;;;5113954;28;20024;-71
2022/01/21 00:47:19;;;;;;;6.68;2.25;;;3.40;99.90;;;;;;5113294;28;20039;-69
2022/01/21 00:49:45;;;;;;;9.02;2.95;;;3.50;99.90;;;;;;5114468;28;20250;-69
2022/01/21 00:52:10;;;;;;;13.80;3.83;;;3.50;99.90;;;;;;5114813;28;20024;-71
2022/01/21 00:54:37;;;;;;;13.60;3.08;;;3.50;99.90;;;;;;5114826;28;20376;-71
2022/01/21 00:57:03;;;;;;;9.85;3.47;;;3.40;99.90;;;;;;5115164;28;20456;-69
2022/01/21 00:59:29;;;;;;;11.43;3.15;;;3.40;99.90;;;;;;5114395;28;20081;-71
2022/01/21 01:01:55;;;;;;;15.88;3.67;;;3.20;99.90;;;;;;5114433;28;20043;-70
2022/01/21 01:04:20;;;;;;;6.13;2.78;;;3.10;99.90;;;;;;5114121;28;20465;-70
2022/01/21 01:06:46;;;;;;;7.75;3.20;;;3.10;99.90;;;;;;5113324;28;20027;-70
2022/01/21 01:09:12;;;;;;;10.25;3.28;;;3.20;99.90;;;;;;5114033;28;20072;-69
2022/01/21 01:12:13;;;;;;;8.07;2.83;;;3.20;99.90;;;;;;5112850;28;20063;-70
2022/01/21 01:20:08;;;;;;;16.98;3.03;;;3.00;99.90;;;;;;5114470;28;20042;-69
2022/01/21 01:22:55;;;;;;;12.73;4.03;;;3.00;99.90;;;;;;5113610;28;20027;-67
2022/01/21 01:28:05;;;;;;;11.45;2.72;;;2.90;99.90;;;;;;5114383;28;20050;-70
2022/01/21 01:30:32;;;;;;;11.10;3.20;;;2.90;99.90;;;;;;5114147;28;20473;-71
2022/01/21 01:33:00;;;;;;;12.10;3.80;;;3.00;99.90;;;;;;5112144;28;20024;-70
2022/01/21 01:35:31;;;;;;;14.25;3.80;;;3.00;99.90;;;;;;5115493;28;20407;-69
2022/01/21 01:51:21;;;;;;;9.00;3.00;;;3.10;99.90;;;;;;5114744;28;20038;-70
2022/01/21 01:53:54;;;;;;;11.05;3.08;;;3.10;99.90;;;;;;5112870;28;20434;-70
2022/01/21 01:56:26;;;;;;;9.15;2.90;;;3.10;99.90;;;;;;5111783;28;20118;-70
2022/01/21 01:58:52;;;;;;;9.63;3.80;;;3.10;99.90;;;;;;5111451;28;20082;-70
2022/01/21 02:01:18;;;;;;;14.48;3.28;;;3.00;99.90;;;;;;5112659;28;20031;-69
2022/01/21 02:03:43;;;;;;;9.45;3.03;;;3.00;99.90;;;;;;5113475;28;20028;-70
2022/01/21 02:06:09;;;;;;;8.32;3.08;;;2.90;99.90;;;;;;5113209;28;20035;-69
2022/01/21 02:08:35;;;;;;;10.25;3.13;;;2.90;99.90;;;;;;5131687;28;20028;-70
2022/01/21 02:11:01;;;;;;;9.50;2.80;;;2.90;99.90;;;;;;5114673;28;20453;-70
2022/01/21 02:13:31;;;;;;;7.78;3.30;;;2.80;99.90;;;;;;5112641;28;20122;-70
2022/01/21 02:16:19;;;;;;;11.48;4.63;;;2.90;99.90;;;;;;5112772;28;20024;-71
2022/01/21 02:21:39;;;;;;;13.20;4.00;;;2.80;99.90;;;;;;5113535;28;20037;-72
2022/01/21 02:24:25;;;;;;;14.55;3.42;;;2.90;99.90;;;;;;5110998;28;20056;-69
2022/01/21 02:26:52;;;;;;;10.77;3.42;;;2.80;99.90;;;;;;5125752;27;20027;-69
2022/01/21 02:29:31;;;;;;;12.45;3.97;;;2.80;99.90;;;;;;5134777;27;20460;-70
2022/01/21 02:31:59;;;;;;;7.72;3.65;;;2.80;99.90;;;;;;5135458;28;20023;-71
2022/01/21 02:34:30;;;;;;;9.35;3.53;;;2.70;99.90;;;;;;5137432;27;20035;-69
2022/01/21 02:36:56;;;;;;;10.50;4.90;;;2.80;99.90;;;;;;5139348;27;20038;-70
2022/01/21 02:39:22;;;;;;;10.85;4.88;;;2.90;99.90;;;;;;5140813;27;20090;-74
2022/01/21 02:41:48;;;;;;;20.15;4.97;;;2.80;99.90;;;;;;5139604;27;20034;-70
2022/01/21 02:44:18;;;;;;;15.90;5.20;;;2.70;99.90;;;;;;5139803;27;20034;-71
2022/01/21 02:46:47;;;;;;;12.57;5.20;;;2.70;99.90;;;;;;5140116;27;20038;-71
2022/01/21 02:49:13;;;;;;;12.88;5.35;;;2.90;99.90;;;;;;5139541;27;20020;-68
2022/01/21 02:51:39;;;;;;;8.18;4.38;;;2.80;99.90;;;;;;5139920;27;20075;-71
2022/01/21 02:54:05;;;;;;;10.93;4.97;;;2.60;99.90;;;;;;5140449;27;20036;-69
2022/01/21 02:56:33;;;;;;;14.93;4.28;;;2.70;99.90;;;;;;5129460;27;20024;-70
2022/01/21 02:58:59;;;;;;;7.63;4.70;;;2.70;99.90;;;;;;5115882;28;20431;-69
2022/01/21 03:01:26;;;;;;;13.73;6.15;;;2.50;99.90;;;;;;5114673;28;20028;-69
2022/01/21 03:03:52;;;;;;;12.90;5.47;;;2.60;99.90;;;;;;5114293;28;20490;-70
2022/01/21 03:06:21;;;;;;;21.00;5.13;;;2.60;99.90;;;;;;5114877;28;20491;-69
2022/01/21 03:08:48;;;;;;;14.98;4.78;;;2.70;99.90;;;;;;5114789;28;20032;-69
2022/01/21 03:11:14;;;;;;;10.80;3.97;;;2.90;99.90;;;;;;5115853;28;20072;-69
2022/01/21 03:13:41;;;;;;;15.10;5.40;;;3.00;99.90;;;;;;5116464;28;20039;-69
2022/01/21 03:16:07;;;;;;;21.23;5.07;;;2.90;99.90;;;;;;5115956;28;20026;-70
2022/01/21 03:18:33;;;;;;;11.15;3.97;;;2.80;99.90;;;;;;5115642;28;20426;-69
2022/01/21 03:20:59;;;;;;;10.63;4.65;;;2.90;99.90;;;;;;5114797;28;20066;-68
2022/01/21 03:23:27;;;;;;;14.98;3.90;;;2.80;99.90;;;;;;5114094;28;20055;-69
2022/01/21 03:25:53;;;;;;;16.92;5.53;;;2.90;99.90;;;;;;5113662;28;20023;-69
2022/01/21 03:28:18;;;;;;;14.52;4.55;;;2.80;99.90;;;;;;5114181;28;20027;-70
2022/01/21 03:30:44;;;;;;;16.70;5.38;;;2.90;99.90;;;;;;5115489;28;20108;-70
2022/01/21 03:33:10;;;;;;;12.43;4.20;;;3.00;99.90;;;;;;5114740;28;20500;-69
2022/01/21 03:35:36;;;;;;;13.82;4.53;;;3.00;99.90;;;;;;5114949;28;20054;-69
2022/01/21 03:38:02;;;;;;;9.95;4.50;;;3.00;99.90;;;;;;5114398;28;20031;-69
2022/01/21 03:40:27;;;;;;;12.75;4.60;;;2.90;99.90;;;;;;5115627;28;20081;-70
2022/01/21 03:42:53;;;;;;;12.95;4.32;;;3.00;99.90;;;;;;5116223;28;20028;-70
2022/01/21 03:45:19;;;;;;;8.23;4.70;;;3.00;99.90;;;;;;5118731;28;20411;-69
2022/01/21 03:47:45;;;;;;;13.00;4.68;;;3.10;99.90;;;;;;5118076;28;20027;-68
2022/01/21 03:50:31;;;;;;;13.75;4.80;;;3.00;99.90;;;;;;5117162;28;20197;-68
2022/01/21 03:52:58;;;;;;;15.38;5.47;;;2.90;99.90;;;;;;5115294;28;20484;-70
2022/01/21 03:55:24;;;;;;;11.85;6.00;;;2.80;99.90;;;;;;5114619;28;20027;-69
2022/01/21 03:57:50;;;;;;;12.05;5.20;;;2.70;99.90;;;;;;5115601;28;20507;-70
2022/01/21 04:00:23;;;;;;;10.43;4.78;;;2.90;99.90;;;;;;5113935;28;20035;-70
2022/01/21 04:02:49;;;;;;;15.93;4.78;;;3.00;99.90;;;;;;5115774;28;20027;-70
2022/01/21 04:05:15;;;;;;;10.93;4.97;;;2.90;99.90;;;;;;5115120;28;20465;-70
2022/01/21 04:07:40;;;;;;;15.00;6.30;;;3.00;99.90;;;;;;5113967;28;20053;-68
2022/01/21 04:10:07;;;;;;;12.27;4.43;;;3.10;99.90;;;;;;5114632;28;20114;-69
2022/01/21 04:12:33;;;;;;;19.38;5.80;;;3.10;99.90;;;;;;5115807;28;20358;-69
2022/01/21 04:14:59;;;;;;;16.02;5.60;;;3.00;99.90;;;;;;5115729;28;20092;-69
2022/01/21 04:17:26;;;;;;;12.30;4.55;;;2.90;99.90;;;;;;5115861;28;20032;-69
2022/01/21 04:19:52;;;;;;;17.17;5.28;;;3.00;99.90;;;;;;5115731;28;20028;-69
2022/01/21 04:22:18;;;;;;;17.20;4.95;;;2.90;99.90;;;;;;5116725;28;20080;-69
2022/01/21 04:24:45;;;;;;;12.02;5.28;;;2.90;99.90;;;;;;5115019;28;20497;-68
2022/01/21 04:27:12;;;;;;;13.30;5.10;;;2.80;99.90;;;;;;5114229;28;20039;-68
2022/01/21 04:29:37;;;;;;;13.48;6.60;;;2.90;99.90;;;;;;5114504;28;20028;-74
2022/01/21 04:32:04;;;;;;;10.63;5.65;;;2.90;99.90;;;;;;5114983;28;20055;-69
2022/01/21 04:34:32;;;;;;;12.55;4.75;;;2.90;99.90;;;;;;5115161;28;20490;-69
2022/01/21 04:36:59;;;;;;;10.45;5.35;;;3.10;99.90;;;;;;5113793;28;20443;-69
2022/01/21 04:39:34;;;;;;;12.70;4.75;;;3.10;99.90;;;;;;5115302;28;20092;-70
2022/01/21 04:47:33;;;;;;;15.40;5.28;;;3.10;99.90;;;;;;5115485;28;20080;-69
2022/01/21 04:50:00;;;;;;;20.25;6.07;;;3.00;99.90;;;;;;5114662;28;20059;-70
2022/01/21 04:52:26;;;;;;;13.95;5.57;;;3.00;99.90;;;;;;5115105;28;20042;-68
2022/01/21 04:54:52;;;;;;;10.43;4.93;;;3.00;99.90;;;;;;5115595;27;20032;-70
2022/01/21 04:57:18;;;;;;;14.23;5.22;;;3.10;99.90;;;;;;5112901;28;20092;-69
2022/01/21 04:59:44;;;;;;;14.38;4.22;;;3.00;99.90;;;;;;5116043;28;20045;-73
2022/01/21 05:02:10;;;;;;;16.92;5.00;;;2.90;99.90;;;;;;5116153;28;20032;-70
2022/01/21 05:04:37;;;;;;;14.85;4.90;;;2.80;99.90;;;;;;5115846;28;20509;-71
2022/01/21 05:07:06;;;;;;;15.85;5.93;;;2.90;99.90;;;;;;5115057;28;20024;-68
2022/01/21 05:09:34;;;;;;;19.20;5.35;;;2.90;99.90;;;;;;5115751;28;20459;-68
2022/01/21 05:12:03;;;;;;;11.32;4.97;;;2.90;99.90;;;;;;5113057;28;20062;-69
2022/01/21 05:14:45;;;;;;;16.55;7.50;;;3.00;99.90;;;;;;5114189;28;20062;-69
2022/01/21 05:17:13;;;;;;;10.80;4.60;;;2.80;99.90;;;;;;5113385;28;20063;-68
2022/01/21 05:19:39;;;;;;;17.50;6.03;;;2.80;99.90;;;;;;5113836;28;20456;-69
2022/01/21 05:22:04;;;;;;;15.85;4.75;;;2.90;99.90;;;;;;5113632;28;20038;-68
2022/01/21 05:24:30;;;;;;;16.13;5.65;;;2.90;99.90;;;;;;5113043;28;20055;-70
2022/01/21 05:26:58;;;;;;;10.30;4.57;;;2.90;99.90;;;;;;5113869;28;20425;-69
2022/01/21 05:29:29;;;;;;;13.82;5.25;;;2.80;99.90;;;;;;5113368;28;20023;-69
2022/01/21 05:31:56;;;;;;;9.80;4.87;;;2.90;99.90;;;;;;5113049;28;20038;-74
2022/01/21 05:34:22;;;;;;;13.68;5.65;;;2.90;99.90;;;;;;5112001;28;20305;-70
2022/01/21 05:36:48;;;;;;;15.50;6.05;;;3.00;99.90;;;;;;5114133;28;20095;-69
2022/01/21 05:39:15;;;;;;;14.65;6.40;;;3.10;99.90;;;;;;5113575;28;20067;-71
2022/01/21 05:41:46;;;;;;;15.57;6.70;;;3.00;99.90;;;;;;5115280;28;20061;-68
2022/01/21 05:44:18;;;;;;;11.07;6.20;;;3.00;99.90;;;;;;5113121;28;20023;-68
2022/01/21 05:46:55;;;;;;;13.27;6.07;;;3.10;99.90;;;;;;5112055;28;20485;-69
2022/01/21 05:49:26;;;;;;;16.05;6.57;;;3.20;99.90;;;;;;5112076;28;20027;-68
2022/01/21 05:51:54;;;;;;;9.75;5.00;;;3.10;99.90;;;;;;5115080;28;20019;-68
2022/01/21 05:54:25;;;;;;;14.07;7.00;;;3.10;99.90;;;;;;5115497;28;20081;-69
2022/01/21 05:56:50;;;;;;;11.15;6.35;;;3.20;99.90;;;;;;5115834;28;20024;-70
2022/01/21 05:59:16;;;;;;;12.98;5.72;;;3.20;99.90;;;;;;5113618;28;20076;-69
2022/01/21 06:01:42;;;;;;;14.95;5.50;;;3.20;99.90;;;;;;5114534;28;20085;-69
2022/01/21 06:04:08;;;;;;;17.60;6.70;;;3.20;99.90;;;;;;5113170;28;20069;-70
2022/01/21 06:06:34;;;;;;;19.17;7.60;;;3.30;99.90;;;;;;5112049;28;20062;-69
2022/01/21 06:09:00;;;;;;;12.30;6.28;;;3.30;99.90;;;;;;5113556;28;20035;-71
2022/01/21 06:11:26;;;;;;;15.68;6.50;;;3.30;99.90;;;;;;5118001;28;20457;-68
2022/01/21 06:13:52;;;;;;;16.30;7.10;;;3.30;99.90;;;;;;5116147;28;20019;-69
2022/01/21 06:16:18;;;;;;;13.82;6.07;;;3.20;99.90;;;;;;5117212;28;20034;-68
2022/01/21 06:18:44;;;;;;;9.98;5.45;;;3.20;99.90;;;;;;5117605;27;20084;-70
2022/01/21 06:21:11;;;;;;;13.52;6.95;;;3.20;99.90;;;;;;5117154;28;20066;-69
2022/01/21 06:23:37;;;;;;;11.50;5.82;;;3.30;99.90;;;;;;5118488;28;20460;-70
2022/01/21 06:26:03;;;;;;;13.27;6.05;;;3.20;99.90;;;;;;5117837;28;20088;-68
2022/01/21 06:28:29;;;;;;;14.18;6.93;;;3.30;99.90;;;;;;5117845;28;20031;-70
2022/01/21 06:30:54;;;;;;;16.20;7.30;;;3.20;99.90;;;;;;5117308;28;20068;-68
2022/01/21 06:33:21;;;;;;;13.98;6.88;;;3.20;99.90;;;;;;5117124;28;20556;-68
2022/01/21 06:35:48;;;;;;;17.15;7.18;;;3.30;99.90;;;;;;5116467;28;20031;-68
2022/01/21 06:38:14;;;;;;;18.05;6.95;;;3.30;99.90;;;;;;5116488;28;20032;-68
2022/01/21 06:40:40;;;;;;;18.13;7.20;;;3.20;99.90;;;;;;5116826;28;20400;-69
2022/01/21 06:43:05;;;;;;;20.52;8.45;;;3.30;99.90;;;;;;5114946;28;20028;-71
2022/01/21 06:45:34;;;;;;;18.58;7.25;;;3.30;99.90;;;;;;5117161;28;20026;-71
2022/01/21 06:48:02;;;;;;;17.00;7.38;;;3.30;99.90;;;;;;5115682;28;20119;-68
2022/01/21 06:50:30;;;;;;;17.58;8.43;;;3.30;99.90;;;;;;5116682;28;20349;-68
2022/01/21 06:52:55;;;;;;;15.55;7.20;;;3.40;99.90;;;;;;5116619;28;20521;-69
2022/01/21 06:55:21;;;;;;;11.82;6.95;;;3.40;99.90;;;;;;5116081;28;20090;-69
2022/01/21 06:57:47;;;;;;;16.25;7.93;;;3.40;99.90;;;;;;5116899;28;20042;-69
2022/01/21 07:00:18;;;;;;;14.70;7.28;;;3.60;99.90;;;;;;5116297;28;20032;-68
2022/01/21 07:02:44;;;;;;;16.40;7.70;;;3.50;99.90;;;;;;5116274;28;20015;-70
2022/01/21 07:05:10;;;;;;;14.70;6.97;;;3.50;99.90;;;;;;5114123;28;20024;-70
2022/01/21 07:07:36;;;;;;;17.38;7.57;;;3.60;99.90;;;;;;5116070;28;20062;-69
2022/01/21 07:10:06;;;;;;;18.38;8.10;;;3.60;99.90;;;;;;5114801;28;20497;-69
2022/01/21 07:12:34;;;;;;;18.95;7.95;;;3.50;99.90;;;;;;5116280;28;20031;-69
2022/01/21 07:15:00;;;;;;;17.17;7.60;;;3.30;99.90;;;;;;5114727;28;20026;-69
2022/01/21 07:17:26;;;;;;;16.58;8.10;;;3.40;99.90;;;;;;5114014;28;20110;-69
2022/01/21 07:19:52;;;;;;;16.60;7.80;;;3.40;99.90;;;;;;5116294;28;20465;-69
2022/01/21 07:22:18;;;;;;;19.17;7.15;;;3.30;99.90;;;;;;5113714;28;20074;-70
2022/01/21 07:24:44;;;;;;;17.08;7.68;;;3.40;99.90;;;;;;5115223;28;20129;-69
2022/01/21 07:27:10;;;;;;;17.83;7.80;;;3.40;99.90;;;;;;5115921;28;20030;-68
2022/01/21 07:29:36;;;;;;;16.63;7.50;;;3.40;99.90;;;;;;5115961;28;20388;-68
2022/01/21 07:32:02;;;;;;;22.17;10.52;;;3.40;99.90;;;;;;5115494;28;20020;-69
2022/01/21 07:34:28;;;;;;;21.17;7.95;;;3.40;99.90;;;;;;5113687;28;20019;-68
2022/01/21 07:36:54;;;;;;;21.10;7.43;;;3.30;99.90;;;;;;5115849;28;20050;-70
2022/01/21 07:39:21;;;;;;;17.73;7.82;;;3.30;99.90;;;;;;5116760;28;20058;-70
2022/01/21 07:41:47;;;;;;;17.70;7.68;;;3.40;99.90;;;;;;5119679;28;20465;-69
2022/01/21 07:44:13;;;;;;;17.70;7.88;;;3.40;99.90;;;;;;5117210;28;20123;-69
2022/01/21 07:46:40;;;;;;;21.48;8.15;;;3.50;99.90;;;;;;5115917;28;20539;-69
2022/01/21 07:49:06;;;;;;;15.00;7.03;;;3.50;99.90;;;;;;5113844;28;20550;-72
2022/01/21 07:51:32;;;;;;;21.02;8.02;;;3.60;99.90;;;;;;5115737;28;20020;-70
2022/01/21 07:53:58;;;;;;;18.42;7.90;;;3.50;99.90;;;;;;5116012;28;20080;-70
2022/01/21 07:56:24;;;;;;;15.82;8.25;;;3.50;99.90;;;;;;5115391;28;20480;-70
2022/01/21 07:58:50;;;;;;;17.85;9.77;;;3.50;99.90;;;;;;5115492;28;20028;-70
2022/01/21 08:01:16;;;;;;;16.10;8.70;;;3.60;99.90;;;;;;5114813;28;20038;-69
2022/01/21 08:03:42;;;;;;;18.10;7.80;;;3.50;99.90;;;;;;5114252;28;20023;-71
2022/01/21 08:06:07;;;;;;;23.40;9.00;;;3.70;99.90;;;;;;5115096;28;20465;-70
2022/01/21 08:08:33;;;;;;;16.88;8.13;;;3.60;99.90;;;;;;5116455;28;20036;-69
2022/01/21 08:10:59;;;;;;;18.02;8.45;;;3.60;99.90;;;;;;5114552;28;20034;-69
2022/01/21 08:13:27;;;;;;;26.05;8.20;;;3.60;99.90;;;;;;5116298;28;20019;-71
2022/01/21 08:15:53;;;;;;;22.08;9.45;;;3.60;99.90;;;;;;5116364;28;20062;-71
2022/01/21 08:18:19;;;;;;;23.50;9.07;;;3.60;99.90;;;;;;5117589;28;20035;-70
2022/01/21 08:20:44;;;;;;;25.08;9.50;;;3.50;99.90;;;;;;5116723;28;20028;-69
2022/01/21 08:23:11;;;;;;;20.40;8.70;;;3.50;99.90;;;;;;5114487;28;20096;-71
2022/01/21 08:25:37;;;;;;;16.67;8.18;;;3.60;99.90;;;;;;5114452;28;20024;-70
2022/01/21 08:28:03;;;;;;;14.77;8.38;;;3.50;99.90;;;;;;5114728;28;20485;-71
2022/01/21 08:30:29;;;;;;;18.77;8.45;;;3.60;99.90;;;;;;5113015;28;20430;-69
2022/01/21 08:32:55;;;;;;;21.27;8.35;;;3.70;99.90;;;;;;5113745;28;20051;-69
2022/01/21 08:35:21;;;;;;;21.17;7.93;;;3.90;99.90;;;;;;5114918;28;20461;-70
2022/01/21 08:37:48;;;;;;;16.58;8.90;;;3.80;99.90;;;;;;5115231;28;20031;-69
2022/01/21 08:40:13;;;;;;;22.08;8.60;;;3.80;99.90;;;;;;5113040;28;20458;-68
2022/01/21 08:42:39;;;;;;;17.27;7.57;;;4.10;99.90;;;;;;5113495;28;20073;-70
2022/01/21 08:45:06;;;;;;;20.02;8.35;;;4.20;99.90;;;;;;5118480;27;20532;-70
2022/01/21 08:47:32;;;;;;;20.88;8.35;;;4.80;99.90;;;;;;5132965;27;20023;-71
2022/01/21 08:50:00;;;;;;;20.40;7.65;;;5.10;99.90;;;;;;5136990;27;20035;-70
2022/01/21 08:52:29;;;;;;;15.68;7.80;;;5.20;99.90;;;;;;5134438;27;20027;-69
2022/01/21 08:54:54;;;;;;;17.13;7.38;;;5.40;99.90;;;;;;5133766;27;20027;-69
2022/01/21 08:57:20;;;;;;;15.38;7.22;;;5.30;99.90;;;;;;5134762;27;20035;-69
2022/01/21 08:59:48;;;;;;;14.23;7.22;;;5.40;99.90;;;;;;5134512;27;20023;-69
2022/01/21 09:02:15;;;;;;;18.52;8.50;;;5.40;99.90;;;;;;5134237;27;20015;-69
2022/01/21 09:04:41;;;;;;;17.67;7.43;;;5.40;99.90;;;;;;5133066;27;20059;-69
2022/01/21 09:07:07;;;;;;;15.82;8.20;;;4.90;99.90;;;;;;5135212;27;20079;-68
2022/01/21 09:09:32;;;;;;;17.25;8.10;;;4.90;99.90;;;;;;5119003;27;20368;-69
2022/01/21 09:12:01;;;;;;;15.20;6.95;;;4.90;99.90;;;;;;5120932;27;20023;-69
2022/01/21 09:14:28;;;;;;;19.50;10.50;;;4.90;99.90;;;;;;5123080;27;20061;-69
2022/01/21 09:16:55;;;;;;;19.63;9.30;;;4.80;99.90;;;;;;5124605;27;20034;-68
2022/01/21 09:19:21;;;;;;;14.15;8.35;;;4.60;99.90;;;;;;5118224;27;20035;-71
2022/01/21 09:21:51;;;;;;;16.33;6.70;;;4.50;99.90;;;;;;5114480;27;20024;-72
2022/01/21 09:24:17;;;;;;;18.90;8.48;;;4.60;99.90;;;;;;5123507;27;20131;-71
2022/01/21 09:26:43;;;;;;;15.63;7.50;;;4.60;99.90;;;;;;5115778;27;20032;-69
2022/01/21 09:29:08;;;;;;;18.67;9.35;;;4.50;99.90;;;;;;5119369;27;20035;-71
2022/01/21 09:31:35;;;;;;;16.30;7.22;;;4.40;99.90;;;;;;5120161;27;20422;-71
2022/01/21 09:34:01;;;;;;;18.05;6.22;;;4.60;99.90;;;;;;5122313;27;20045;-69
2022/01/21 09:36:26;;;;;;;16.48;7.35;;;4.50;99.90;;;;;;5119319;28;20524;-71
2022/01/21 09:38:52;;;;;;;13.68;7.53;;;4.50;99.90;;;;;;5129952;27;20457;-72
2022/01/21 09:41:19;;;;;;;12.05;6.70;;;4.60;99.90;;;;;;5122473;28;20027;-71
2022/01/21 09:43:47;;;;;;;14.43;6.90;;;4.70;99.90;;;;;;5122686;28;20016;-72
2022/01/21 09:46:14;;;;;;;17.65;7.80;;;4.90;99.90;;;;;;5141699;27;20076;-70
2022/01/21 09:48:53;;;;;;;15.60;8.07;;;4.90;99.90;;;;;;5143025;27;20127;-70
2022/01/21 09:51:19;;;;;;;17.13;7.90;;;5.00;99.90;;;;;;5130593;27;20030;-71
2022/01/21 09:53:45;;;;;;;14.13;7.68;;;5.00;99.90;;;;;;5133185;27;20039;-71
2022/01/21 09:56:14;;;;;;;16.00;8.32;;;5.00;99.90;;;;;;5127030;27;20023;-71
2022/01/21 09:58:42;;;;;;;20.70;9.80;;;5.20;99.90;;;;;;5126816;27;20039;-71
2022/01/21 10:01:09;;;;;;;21.90;9.00;;;5.20;99.90;;;;;;5124457;27;20027;-71
2022/01/21 10:03:35;;;;;;;21.50;9.25;;;5.40;99.90;;;;;;5127150;27;20019;-70
2022/01/21 10:06:02;;;;;;;24.17;8.32;;;5.20;99.90;;;;;;5139442;27;20034;-69
2022/01/21 10:08:29;;;;;;;13.27;7.93;;;5.20;99.90;;;;;;5135093;27;20035;-73
2022/01/21 10:10:55;;;;;;;19.27;8.55;;;5.20;99.90;;;;;;5132835;27;20065;-72
2022/01/21 10:13:21;;;;;;;13.10;7.78;;;5.10;99.90;;;;;;5134871;27;20031;-71
2022/01/21 10:15:48;;;;;;;21.33;7.65;;;4.90;99.90;;;;;;5122659;27;20030;-71
2022/01/21 10:18:19;;;;;;;21.58;8.75;;;4.80;99.90;;;;;;5125398;27;20107;-71
2022/01/21 10:21:11;;;;;;;20.95;8.73;;;4.90;99.90;;;;;;5140729;27;20053;-74
2022/01/21 10:23:39;;;;;;;17.25;7.97;;;4.60;99.90;;;;;;5140978;27;20061;-71
2022/01/21 10:26:13;;;;;;;19.08;7.55;;;4.70;99.90;;;;;;5138833;27;20062;-71
2022/01/21 10:28:44;;;;;;;21.65;7.47;;;4.90;99.90;;;;;;5153636;27;20099;-71
2022/01/21 10:31:18;;;;;;;26.33;9.05;;;5.00;99.90;;;;;;5160751;27;20078;-72
2022/01/21 10:33:48;;;;;;;13.23;7.57;;;4.80;99.90;;;;;;5161580;27;20082;-72
2022/01/21 10:36:23;;;;;;;17.13;7.03;;;5.20;99.90;;;;;;5158043;27;20106;-72
2022/01/21 10:38:51;;;;;;;17.27;7.43;;;5.30;99.90;;;;;;5126460;27;20098;-72
2022/01/21 10:41:19;;;;;;;17.73;8.15;;;5.80;99.90;;;;;;5138543;27;20141;-69
2022/01/21 10:44:01;;;;;;;13.00;6.07;;;6.20;99.90;;;;;;5123327;27;20034;-70
2022/01/21 10:46:27;;;;;;;12.93;5.97;;;6.60;99.90;;;;;;5105090;27;20035;-72
2022/01/21 10:49:09;;;;;;;13.40;6.03;;;7.20;99.90;;;;;;5122752;27;20035;-71
2022/01/21 10:51:38;;;;;;;13.60;7.28;;;8.20;99.90;;;;;;5132642;27;20034;-71
2022/01/21 10:54:20;;;;;;;13.57;7.18;;;9.30;99.90;;;;;;5130272;27;20055;-71
2022/01/21 10:57:02;;;;;;;9.02;5.55;;;;;;;;;;5137993;27;20248;-71
2022/01/21 10:59:44;;;;;;;11.38;5.25;;;;;;;;;;5131590;27;20030;-73
2022/01/21 11:02:11;;;;;;;12.50;5.35;;;;;;;;;;5127482;27;20027;-74
2022/01/21 11:04:41;;;;;;;13.48;5.00;;;;;;;;;;5131560;27;20337;-72
2022/01/21 11:07:07;;;;;;;12.00;4.60;;;9.80;99.90;;;;;;5118465;27;20090;-72
2022/01/21 11:09:37;;;;;;;14.85;5.68;;;9.10;99.90;;;;;;5146712;27;20028;-72
2022/01/21 11:12:14;;;;;;;11.90;5.32;;;8.80;99.90;;;;;;5126818;27;20035;-72
2022/01/21 11:14:58;;;;;;;14.18;5.85;;;8.60;99.90;;;;;;5116820;28;20422;-70
2022/01/21 11:17:24;;;;;;;13.02;4.78;;;8.20;99.90;;;;;;5118015;28;20035;-72
2022/01/21 11:20:15;;;;;;;11.65;5.10;;;7.80;99.90;;;;;;5134079;27;20354;-72
2022/01/21 11:22:51;;;;;;;9.88;5.22;;;7.60;99.90;;;;;;5117021;28;20476;-72
2022/01/21 11:25:20;;;;;;;15.30;7.15;;;7.60;99.90;;;;;;5119674;28;20125;-74
2022/01/21 11:27:55;;;;;;;13.05;6.45;;;7.70;99.90;;;;;;5118460;28;20036;-72
2022/01/21 11:30:21;;;;;;;14.27;5.72;;;7.50;99.90;;;;;;5118037;28;20499;-72
2022/01/21 11:32:47;;;;;;;9.20;5.25;;;7.40;99.90;;;;;;5119293;28;20023;-72
2022/01/21 11:35:12;;;;;;;15.68;5.75;;;6.90;99.90;;;;;;5117292;28;20120;-72
2022/01/21 11:37:39;;;;;;;8.93;5.95;;;6.40;99.90;;;;;;5118964;28;20246;-72
2022/01/21 11:40:06;;;;;;;12.77;6.55;;;6.50;99.90;;;;;;5117282;28;20077;-70
2022/01/21 11:42:38;;;;;;;18.40;7.30;;;6.60;99.90;;;;;;5115439;28;20028;-71
2022/01/21 11:45:30;;;;;;;14.80;7.63;;;6.50;99.90;;;;;;5115931;28;20035;-71
2022/01/21 11:48:12;;;;;;;18.25;7.55;;;6.50;99.90;;;;;;5116596;28;20037;-71
2022/01/21 11:50:37;;;;;;;12.07;6.25;;;6.50;99.90;;;;;;5117594;28;20027;-72
2022/01/21 11:53:04;;;;;;;14.80;6.00;;;6.40;99.90;;;;;;5122789;28;20028;-70
2022/01/21 11:55:40;;;;;;;10.63;5.82;;;6.40;99.90;;;;;;5120025;27;20039;-72
2022/01/21 11:58:17;;;;;;;10.93;4.90;;;6.40;99.90;;;;;;5118439;28;20031;-71
2022/01/21 12:00:47;;;;;;;9.85;6.00;;;6.30;99.90;;;;;;5121629;28;20028;-71
2022/01/21 12:03:14;;;;;;;16.42;5.47;;;6.30;99.90;;;;;;5119243;28;20027;-72
2022/01/21 12:05:39;;;;;;;18.02;5.68;;;6.40;99.90;;;;;;5116701;28;20031;-71
2022/01/21 12:08:06;;;;;;;17.48;6.20;;;6.40;99.90;;;;;;5116628;28;20031;-72
2022/01/21 12:10:35;;;;;;;9.65;5.07;;;7.30;99.90;;;;;;5117231;28;20069;-72
2022/01/21 12:13:11;;;;;;;14.82;5.22;;;8.20;99.90;;;;;;5116482;28;20024;-71
2022/01/21 12:18:30;;;;;;;6.45;4.03;;;9.70;99.90;;;;;;5115521;28;20035;-71
2022/01/21 12:21:00;;;;;;;12.77;5.55;;;10.70;98.20;;;;;;5116093;27;20043;-71
2022/01/21 12:23:29;;;;;;;18.98;7.75;;;11.10;96.20;;;;;;5115116;28;20048;-72
2022/01/21 12:26:20;;;;;;;14.00;4.38;;;11.10;96.80;;;;;;5117652;28;20049;-73
2022/01/21 12:29:06;;;;;;;8.77;4.38;;;;;;;;;;5117744;28;20472;-73
2022/01/21 12:31:39;;;;;;;14.07;5.55;;;11.90;93.00;;;;;;5107204;28;20115;-73
2022/01/21 12:34:09;;;;;;;13.45;3.97;;;12.50;93.20;;;;;;5117661;28;20023;-72
2022/01/21 12:36:40;;;;;;;16.38;5.15;;;13.30;92.00;;;;;;5115838;28;20028;-71
2022/01/21 12:39:43;;;;;;;6.75;3.67;;;13.50;89.40;;;;;;5113322;28;20035;-70
2022/01/21 12:42:29;;;;;;;8.85;4.00;;;12.70;90.40;;;;;;5114332;28;20028;-72
2022/01/21 12:45:17;;;;;;;11.52;5.05;;;12.00;90.20;;;;;;5113758;28;20030;-71
2022/01/21 12:47:46;;;;;;;9.05;4.88;;;10.90;92.20;;;;;;5113841;28;20198;-72
2022/01/21 12:50:46;;;;;;;7.45;4.07;;;10.20;93.80;;;;;;5114667;28;20094;-71
2022/01/21 12:53:24;;;;;;;9.52;5.55;;;9.80;94.80;;;;;;5114558;28;20035;-70
2022/01/21 12:55:59;;;;;;;14.18;5.85;;;9.10;97.20;;;;;;5114401;28;20079;-71
2022/01/21 12:58:26;;;;;;;11.63;4.90;;;8.50;98.50;;;;;;5112440;28;20032;-70
2022/01/21 13:01:15;;;;;;;12.30;4.22;;;8.70;98.70;;;;;;5112810;28;20529;-70
2022/01/21 13:03:51;;;;;;;11.55;4.22;;;8.70;99.20;;;;;;5113722;28;20031;-71
2022/01/21 13:06:19;;;;;;;9.45;3.72;;;8.50;99.30;;;;;;5114033;28;20020;-72
2022/01/21 13:09:08;;;;;;;9.70;3.65;;;8.20;99.70;;;;;;5113426;28;20035;-72
2022/01/21 13:11:36;;;;;;;13.57;3.72;;;8.40;99.40;;;;;;5113959;28;20028;-70
2022/01/21 13:14:23;;;;;;;9.90;4.40;;;8.60;99.00;;;;;;5113089;28;20027;-70
2022/01/21 13:17:00;;;;;;;10.90;4.15;;;8.70;99.00;;;;;;5112287;28;20027;-72
2022/01/21 13:19:30;;;;;;;14.73;6.90;;;8.70;99.10;;;;;;5112155;28;20028;-72
2022/01/21 13:21:56;;;;;;;9.10;4.57;;;7.90;99.90;;;;;;5127558;27;20053;-70
2022/01/21 13:24:32;;;;;;;12.00;4.38;;;7.90;99.90;;;;;;5135199;27;20392;-72
2022/01/21 13:26:58;;;;;;;6.70;4.20;;;7.90;99.90;;;;;;5134054;27;20030;-69
2022/01/21 13:29:33;;;;;;;11.77;5.80;;;7.60;99.90;;;;;;5134419;27;20053;-71
2022/01/21 13:32:01;;;;;;;13.60;4.22;;;7.50;99.90;;;;;;5121446;27;20123;-70
2022/01/21 13:34:28;;;;;;;9.02;3.20;;;7.50;99.90;;;;;;5117666;27;20049;-74
2022/01/21 13:36:59;;;;;;;9.85;5.25;;;7.40;99.90;;;;;;5129625;27;20035;-71
2022/01/21 13:39:32;;;;;;;11.50;3.58;;;7.20;99.90;;;;;;5136469;27;20027;-70
2022/01/21 13:42:12;;;;;;;8.70;4.00;;;7.30;99.90;;;;;;5132569;27;20388;-71
2022/01/21 13:44:56;;;;;;;17.30;3.78;;;7.30;99.90;;;;;;5121206;28;20027;-70